sensor_id;sensor_type;location;lat;lon;timestamp;P1;durP1;ratioP1;P2;durP2;ratioP2
10489;SDS011;35569;48.402;10.670;2022-08-21T00:00:17;1.10;;;1.10;;
10489;SDS011;35569;48.402;10.670;2022-08-21T00:00:51;0.90;;;0.90;;
10489;SDS011;35569;48.402;10.670;2022-08-21T00:01:26;0.80;;;0.80;;
10489;SDS011;35569;48.402;10.670;2022-08-21T00:01:59;0.77;;;0.77;;
10489;SDS011;35569;48.402;10.670;2022-08-21T00:02:32;1.40;;;1.10;;
10489;SDS011;35569;48.402;10.670;2022-08-21T00:03:08;0.87;;;0.87;;
10489;SDS011;35569;48.402;10.670;2022-08-21T00:03:41;1.00;;;1.00;;
10489;SDS011;35569;48.402;10.670;2022-08-21T00:04:16;0.93;;;0.93;;
10489;SDS011;35569;48.402;10.670;2022-08-21T00:04:53;0.93;;;0.93;;
10489;SDS011;35569;48.402;10.670;2022-08-21T00:05:31;0.70;;;0.70;;
10489;SDS011;35569;48.402;10.670;2022-08-21T00:06:07;0.97;;;0.97;;
10489;SDS011;35569;48.402;10.670;2022-08-21T00:06:44;1.03;;;1.03;;
10489;SDS011;35569;48.402;10.670;2022-08-21T00:07:17;0.90;;;0.90;;
10489;SDS011;35569;48.402;10.670;2022-08-21T00:07:55;1.10;;;1.10;;
10489;SDS011;35569;48.402;10.670;2022-08-21T00:08:28;1.00;;;1.00;;
10489;SDS011;35569;48.402;10.670;2022-08-21T00:09:00;1.20;;;1.20;;
10489;SDS011;35569;48.402;10.670;2022-08-21T00:09:37;0.90;;;0.90;;
10489;SDS011;35569;48.402;10.670;2022-08-21T00:10:10;1.27;;;1.17;;
10489;SDS011;35569;48.402;10.670;2022-08-21T00:10:43;0.90;;;0.90;;
10489;SDS011;35569;48.402;10.670;2022-08-21T00:11:18;0.80;;;0.80;;
10489;SDS011;35569;48.402;10.670;2022-08-21T00:11:50;1.20;;;1.20;;
10489;SDS011;35569;48.402;10.670;2022-08-21T00:12:23;1.00;;;1.00;;
10489;SDS011;35569;48.402;10.670;2022-08-21T00:12:59;0.87;;;0.87;;
10489;SDS011;35569;48.402;10.670;2022-08-21T00:13:32;1.00;;;1.00;;
10489;SDS011;35569;48.402;10.670;2022-08-21T00:14:06;1.10;;;1.10;;
10489;SDS011;35569;48.402;10.670;2022-08-21T00:14:42;1.07;;;1.07;;
10489;SDS011;35569;48.402;10.670;2022-08-21T00:15:18;1.10;;;1.10;;
10489;SDS011;35569;48.402;10.670;2022-08-21T00:15:52;1.00;;;1.00;;
10489;SDS011;35569;48.402;10.670;2022-08-21T00:16:27;1.00;;;1.00;;
10489;SDS011;35569;48.402;10.670;2022-08-21T00:16:59;1.20;;;1.20;;
10489;SDS011;35569;48.402;10.670;2022-08-21T00:17:32;1.10;;;1.10;;
10489;SDS011;35569;48.402;10.670;2022-08-21T00:18:08;1.20;;;1.20;;
10489;SDS011;35569;48.402;10.670;2022-08-21T00:18:42;1.37;;;1.37;;
10489;SDS011;35569;48.402;10.670;2022-08-21T00:19:17;1.30;;;1.30;;
10489;SDS011;35569;48.402;10.670;2022-08-21T00:19:52;1.00;;;1.00;;
10489;SDS011;35569;48.402;10.670;2022-08-21T00:20:24;1.90;;;1.90;;
10489;SDS011;35569;48.402;10.670;2022-08-21T00:21:02;1.40;;;1.40;;
10489;SDS011;35569;48.402;10.670;2022-08-21T00:21:35;1.60;;;1.60;;
10489;SDS011;35569;48.402;10.670;2022-08-21T00:22:08;1.67;;;1.67;;
10489;SDS011;35569;48.402;10.670;2022-08-21T00:22:44;1.93;;;1.93;;
10489;SDS011;35569;48.402;10.670;2022-08-21T00:23:16;1.30;;;1.30;;
10489;SDS011;35569;48.402;10.670;2022-08-21T00:23:49;1.10;;;1.10;;
10489;SDS011;35569;48.402;10.670;2022-08-21T00:24:24;1.10;;;1.10;;
10489;SDS011;35569;48.402;10.670;2022-08-21T00:24:57;1.63;;;1.53;;
10489;SDS011;35569;48.402;10.670;2022-08-21T00:25:29;1.10;;;1.10;;
10489;SDS011;35569;48.402;10.670;2022-08-21T00:26:05;1.40;;;1.40;;
10489;SDS011;35569;48.402;10.670;2022-08-21T00:26:38;1.47;;;1.47;;
10489;SDS011;35569;48.402;10.670;2022-08-21T00:27:10;1.40;;;1.40;;
10489;SDS011;35569;48.402;10.670;2022-08-21T00:27:45;1.20;;;1.20;;
10489;SDS011;35569;48.402;10.670;2022-08-21T00:28:18;1.20;;;1.20;;
10489;SDS011;35569;48.402;10.670;2022-08-21T00:28:50;1.53;;;1.43;;
10489;SDS011;35569;48.402;10.670;2022-08-21T00:29:25;1.70;;;1.70;;
10489;SDS011;35569;48.402;10.670;2022-08-21T00:29:58;1.00;;;1.00;;
10489;SDS011;35569;48.402;10.670;2022-08-21T00:30:30;1.30;;;1.30;;
10489;SDS011;35569;48.402;10.670;2022-08-21T00:31:05;1.20;;;1.20;;
10489;SDS011;35569;48.402;10.670;2022-08-21T00:31:38;1.30;;;1.30;;
10489;SDS011;35569;48.402;10.670;2022-08-21T00:32:10;1.93;;;1.93;;
10489;SDS011;35569;48.402;10.670;2022-08-21T00:32:45;2.07;;;2.07;;
10489;SDS011;35569;48.402;10.670;2022-08-21T00:33:18;1.40;;;1.40;;
10489;SDS011;35569;48.402;10.670;2022-08-21T00:33:50;1.30;;;1.30;;
10489;SDS011;35569;48.402;10.670;2022-08-21T00:34:31;1.50;;;1.50;;
10489;SDS011;35569;48.402;10.670;2022-08-21T00:35:04;1.50;;;1.50;;
10489;SDS011;35569;48.402;10.670;2022-08-21T00:35:41;1.43;;;1.43;;
10489;SDS011;35569;48.402;10.670;2022-08-21T00:36:17;1.40;;;1.40;;
10489;SDS011;35569;48.402;10.670;2022-08-21T00:36:49;2.30;;;1.60;;
10489;SDS011;35569;48.402;10.670;2022-08-21T00:37:24;1.63;;;1.63;;
10489;SDS011;35569;48.402;10.670;2022-08-21T00:37:57;1.37;;;1.37;;
10489;SDS011;35569;48.402;10.670;2022-08-21T00:38:30;1.80;;;1.80;;
10489;SDS011;35569;48.402;10.670;2022-08-21T00:39:05;1.40;;;1.40;;
10489;SDS011;35569;48.402;10.670;2022-08-21T00:39:38;1.70;;;1.70;;
10489;SDS011;35569;48.402;10.670;2022-08-21T00:40:12;1.80;;;1.80;;
10489;SDS011;35569;48.402;10.670;2022-08-21T00:40:48;1.77;;;1.67;;
10489;SDS011;35569;48.402;10.670;2022-08-21T00:41:24;1.67;;;1.67;;
10489;SDS011;35569;48.402;10.670;2022-08-21T00:42:09;2.00;;;1.90;;
10489;SDS011;35569;48.402;10.670;2022-08-21T00:42:42;2.20;;;2.10;;
10489;SDS011;35569;48.402;10.670;2022-08-21T00:43:25;1.60;;;1.57;;
10489;SDS011;35569;48.402;10.670;2022-08-21T00:43:59;1.70;;;1.70;;
10489;SDS011;35569;48.402;10.670;2022-08-21T00:44:32;2.27;;;2.20;;
10489;SDS011;35569;48.402;10.670;2022-08-21T00:45:04;1.80;;;1.80;;
10489;SDS011;35569;48.402;10.670;2022-08-21T00:45:42;2.00;;;1.90;;
10489;SDS011;35569;48.402;10.670;2022-08-21T00:46:15;1.93;;;1.90;;
10489;SDS011;35569;48.402;10.670;2022-08-21T00:46:47;2.10;;;2.00;;
10489;SDS011;35569;48.402;10.670;2022-08-21T00:47:22;2.33;;;2.27;;
10489;SDS011;35569;48.402;10.670;2022-08-21T00:47:55;2.83;;;2.67;;
10489;SDS011;35569;48.402;10.670;2022-08-21T00:48:28;2.73;;;2.63;;
10489;SDS011;35569;48.402;10.670;2022-08-21T00:49:03;2.67;;;2.57;;
10489;SDS011;35569;48.402;10.670;2022-08-21T00:49:35;3.63;;;3.43;;
10489;SDS011;35569;48.402;10.670;2022-08-21T00:50:09;3.67;;;3.37;;
10489;SDS011;35569;48.402;10.670;2022-08-21T00:50:52;3.97;;;3.87;;
10489;SDS011;35569;48.402;10.670;2022-08-21T00:51:31;4.10;;;3.90;;
10489;SDS011;35569;48.402;10.670;2022-08-21T00:52:11;3.80;;;3.50;;
10489;SDS011;35569;48.402;10.670;2022-08-21T00:52:47;3.83;;;3.63;;
10489;SDS011;35569;48.402;10.670;2022-08-21T00:53:20;3.50;;;3.40;;
10489;SDS011;35569;48.402;10.670;2022-08-21T00:53:54;3.60;;;3.50;;
10489;SDS011;35569;48.402;10.670;2022-08-21T00:54:33;4.40;;;4.20;;
10489;SDS011;35569;48.402;10.670;2022-08-21T00:55:06;3.83;;;3.63;;
10489;SDS011;35569;48.402;10.670;2022-08-21T00:55:42;4.00;;;3.90;;
10489;SDS011;35569;48.402;10.670;2022-08-21T00:56:15;3.67;;;3.40;;
10489;SDS011;35569;48.402;10.670;2022-08-21T00:56:49;3.40;;;3.30;;
10489;SDS011;35569;48.402;10.670;2022-08-21T00:57:26;3.23;;;3.13;;
10489;SDS011;35569;48.402;10.670;2022-08-21T00:58:01;3.07;;;2.97;;
10489;SDS011;35569;48.402;10.670;2022-08-21T00:58:35;2.57;;;2.50;;
10489;SDS011;35569;48.402;10.670;2022-08-21T00:59:13;2.53;;;2.43;;
10489;SDS011;35569;48.402;10.670;2022-08-21T00:59:46;3.03;;;2.93;;
10489;SDS011;35569;48.402;10.670;2022-08-21T01:00:21;2.97;;;2.87;;
10489;SDS011;35569;48.402;10.670;2022-08-21T01:00:59;3.13;;;3.03;;
10489;SDS011;35569;48.402;10.670;2022-08-21T01:01:38;2.57;;;2.47;;
10489;SDS011;35569;48.402;10.670;2022-08-21T01:02:11;2.70;;;2.60;;
10489;SDS011;35569;48.402;10.670;2022-08-21T01:02:47;2.80;;;2.70;;
10489;SDS011;35569;48.402;10.670;2022-08-21T01:03:20;2.80;;;2.70;;
10489;SDS011;35569;48.402;10.670;2022-08-21T01:03:54;2.50;;;2.40;;
10489;SDS011;35569;48.402;10.670;2022-08-21T01:04:29;2.07;;;2.07;;
10489;SDS011;35569;48.402;10.670;2022-08-21T01:05:02;2.33;;;2.23;;
10489;SDS011;35569;48.402;10.670;2022-08-21T01:05:35;2.50;;;2.40;;
10489;SDS011;35569;48.402;10.670;2022-08-21T01:06:08;2.50;;;2.40;;
10489;SDS011;35569;48.402;10.670;2022-08-21T01:06:46;2.70;;;2.60;;
10489;SDS011;35569;48.402;10.670;2022-08-21T01:07:18;2.10;;;2.00;;
10489;SDS011;35569;48.402;10.670;2022-08-21T01:07:53;2.80;;;2.60;;
10489;SDS011;35569;48.402;10.670;2022-08-21T01:08:28;3.00;;;2.90;;
10489;SDS011;35569;48.402;10.670;2022-08-21T01:09:01;2.33;;;2.23;;
10489;SDS011;35569;48.402;10.670;2022-08-21T01:09:34;5.33;;;2.40;;
10489;SDS011;35569;48.402;10.670;2022-08-21T01:10:09;2.20;;;2.20;;
10489;SDS011;35569;48.402;10.670;2022-08-21T01:10:54;2.80;;;2.70;;
10489;SDS011;35569;48.402;10.670;2022-08-21T01:11:33;3.40;;;3.20;;
10489;SDS011;35569;48.402;10.670;2022-08-21T01:12:06;2.83;;;2.73;;
10489;SDS011;35569;48.402;10.670;2022-08-21T01:12:38;2.90;;;2.80;;
10489;SDS011;35569;48.402;10.670;2022-08-21T01:13:15;2.60;;;2.50;;
10489;SDS011;35569;48.402;10.670;2022-08-21T01:13:50;2.37;;;2.27;;
10489;SDS011;35569;48.402;10.670;2022-08-21T01:14:23;1.90;;;1.90;;
10489;SDS011;35569;48.402;10.670;2022-08-21T01:15:00;2.00;;;2.00;;
10489;SDS011;35569;48.402;10.670;2022-08-21T01:15:35;2.57;;;2.47;;
10489;SDS011;35569;48.402;10.670;2022-08-21T01:16:09;2.20;;;2.10;;
10489;SDS011;35569;48.402;10.670;2022-08-21T01:16:45;2.43;;;2.33;;
10489;SDS011;35569;48.402;10.670;2022-08-21T01:17:19;2.00;;;2.00;;
10489;SDS011;35569;48.402;10.670;2022-08-21T01:17:53;2.00;;;2.00;;
10489;SDS011;35569;48.402;10.670;2022-08-21T01:18:28;2.10;;;2.10;;
10489;SDS011;35569;48.402;10.670;2022-08-21T01:19:01;1.70;;;1.70;;
10489;SDS011;35569;48.402;10.670;2022-08-21T01:19:34;2.00;;;1.90;;
10489;SDS011;35569;48.402;10.670;2022-08-21T01:20:09;2.13;;;2.13;;
10489;SDS011;35569;48.402;10.670;2022-08-21T01:20:44;2.20;;;2.13;;
10489;SDS011;35569;48.402;10.670;2022-08-21T01:21:20;1.50;;;1.50;;
10489;SDS011;35569;48.402;10.670;2022-08-21T01:21:58;1.97;;;1.87;;
10489;SDS011;35569;48.402;10.670;2022-08-21T01:22:31;1.57;;;1.57;;
10489;SDS011;35569;48.402;10.670;2022-08-21T01:23:04;1.90;;;1.83;;
10489;SDS011;35569;48.402;10.670;2022-08-21T01:23:42;1.90;;;1.90;;
10489;SDS011;35569;48.402;10.670;2022-08-21T01:24:15;1.93;;;1.93;;
10489;SDS011;35569;48.402;10.670;2022-08-21T01:24:50;1.90;;;1.80;;
10489;SDS011;35569;48.402;10.670;2022-08-21T01:25:22;2.10;;;2.00;;
10489;SDS011;35569;48.402;10.670;2022-08-21T01:25:55;1.97;;;1.87;;
10489;SDS011;35569;48.402;10.670;2022-08-21T01:26:31;1.57;;;1.47;;
10489;SDS011;35569;48.402;10.670;2022-08-21T01:27:06;1.80;;;1.80;;
10489;SDS011;35569;48.402;10.670;2022-08-21T01:27:38;1.70;;;1.60;;
10489;SDS011;35569;48.402;10.670;2022-08-21T01:28:14;1.57;;;1.50;;
10489;SDS011;35569;48.402;10.670;2022-08-21T01:28:47;1.37;;;1.37;;
10489;SDS011;35569;48.402;10.670;2022-08-21T01:29:26;1.97;;;1.87;;
10489;SDS011;35569;48.402;10.670;2022-08-21T01:30:04;2.37;;;2.10;;
10489;SDS011;35569;48.402;10.670;2022-08-21T01:30:42;1.80;;;1.80;;
10489;SDS011;35569;48.402;10.670;2022-08-21T01:31:19;2.43;;;2.30;;
10489;SDS011;35569;48.402;10.670;2022-08-21T01:31:56;2.20;;;2.00;;
10489;SDS011;35569;48.402;10.670;2022-08-21T01:32:29;2.30;;;2.10;;
10489;SDS011;35569;48.402;10.670;2022-08-21T01:33:04;2.10;;;2.00;;
10489;SDS011;35569;48.402;10.670;2022-08-21T01:33:37;1.70;;;1.70;;
10489;SDS011;35569;48.402;10.670;2022-08-21T01:34:09;2.00;;;2.00;;
10489;SDS011;35569;48.402;10.670;2022-08-21T01:34:45;2.10;;;2.03;;
10489;SDS011;35569;48.402;10.670;2022-08-21T01:35:19;2.07;;;2.00;;
10489;SDS011;35569;48.402;10.670;2022-08-21T01:35:52;1.83;;;1.83;;
10489;SDS011;35569;48.402;10.670;2022-08-21T01:36:30;1.90;;;1.90;;
10489;SDS011;35569;48.402;10.670;2022-08-21T01:37:03;1.97;;;1.97;;
10489;SDS011;35569;48.402;10.670;2022-08-21T01:37:36;1.90;;;1.90;;
10489;SDS011;35569;48.402;10.670;2022-08-21T01:38:09;2.00;;;1.90;;
10489;SDS011;35569;48.402;10.670;2022-08-21T01:38:44;2.40;;;2.20;;
10489;SDS011;35569;48.402;10.670;2022-08-21T01:39:16;1.73;;;1.63;;
10489;SDS011;35569;48.402;10.670;2022-08-21T01:39:49;1.90;;;1.90;;
10489;SDS011;35569;48.402;10.670;2022-08-21T01:40:25;1.83;;;1.83;;
10489;SDS011;35569;48.402;10.670;2022-08-21T01:40:57;1.80;;;1.70;;
10489;SDS011;35569;48.402;10.670;2022-08-21T01:41:30;1.80;;;1.80;;
10489;SDS011;35569;48.402;10.670;2022-08-21T01:42:05;1.77;;;1.77;;
10489;SDS011;35569;48.402;10.670;2022-08-21T01:42:38;1.90;;;1.90;;
10489;SDS011;35569;48.402;10.670;2022-08-21T01:43:11;1.50;;;1.50;;
10489;SDS011;35569;48.402;10.670;2022-08-21T01:43:54;1.20;;;1.20;;
10489;SDS011;35569;48.402;10.670;2022-08-21T01:44:26;1.47;;;1.47;;
10489;SDS011;35569;48.402;10.670;2022-08-21T01:44:59;1.60;;;1.60;;
10489;SDS011;35569;48.402;10.670;2022-08-21T01:45:34;1.77;;;1.77;;
10489;SDS011;35569;48.402;10.670;2022-08-21T01:46:07;1.50;;;1.50;;
10489;SDS011;35569;48.402;10.670;2022-08-21T01:46:39;1.70;;;1.70;;
10489;SDS011;35569;48.402;10.670;2022-08-21T01:47:12;1.90;;;1.90;;
10489;SDS011;35569;48.402;10.670;2022-08-21T01:47:49;1.60;;;1.60;;
10489;SDS011;35569;48.402;10.670;2022-08-21T01:48:21;1.60;;;1.60;;
10489;SDS011;35569;48.402;10.670;2022-08-21T01:48:53;1.30;;;1.30;;
10489;SDS011;35569;48.402;10.670;2022-08-21T01:49:28;1.60;;;1.60;;
10489;SDS011;35569;48.402;10.670;2022-08-21T01:50:02;1.57;;;1.57;;
10489;SDS011;35569;48.402;10.670;2022-08-21T01:50:35;1.80;;;1.70;;
10489;SDS011;35569;48.402;10.670;2022-08-21T01:51:11;1.53;;;1.53;;
10489;SDS011;35569;48.402;10.670;2022-08-21T01:51:46;1.50;;;1.50;;
10489;SDS011;35569;48.402;10.670;2022-08-21T01:52:18;1.07;;;1.07;;
10489;SDS011;35569;48.402;10.670;2022-08-21T01:52:53;1.33;;;1.33;;
10489;SDS011;35569;48.402;10.670;2022-08-21T01:53:25;1.20;;;1.20;;
10489;SDS011;35569;48.402;10.670;2022-08-21T01:54:04;1.40;;;1.40;;
10489;SDS011;35569;48.402;10.670;2022-08-21T01:54:39;1.50;;;1.50;;
10489;SDS011;35569;48.402;10.670;2022-08-21T01:55:13;1.30;;;1.30;;
10489;SDS011;35569;48.402;10.670;2022-08-21T01:55:45;1.20;;;1.20;;
10489;SDS011;35569;48.402;10.670;2022-08-21T01:56:20;1.00;;;1.00;;
10489;SDS011;35569;48.402;10.670;2022-08-21T01:56:53;0.90;;;0.90;;
10489;SDS011;35569;48.402;10.670;2022-08-21T01:57:25;1.17;;;1.17;;
10489;SDS011;35569;48.402;10.670;2022-08-21T01:58:01;1.03;;;1.03;;
10489;SDS011;35569;48.402;10.670;2022-08-21T01:58:33;1.30;;;1.30;;
10489;SDS011;35569;48.402;10.670;2022-08-21T01:59:06;1.40;;;1.40;;
10489;SDS011;35569;48.402;10.670;2022-08-21T01:59:41;1.40;;;1.40;;
10489;SDS011;35569;48.402;10.670;2022-08-21T02:00:15;0.90;;;0.90;;
10489;SDS011;35569;48.402;10.670;2022-08-21T02:00:49;1.30;;;1.30;;
10489;SDS011;35569;48.402;10.670;2022-08-21T02:01:25;1.37;;;1.27;;
10489;SDS011;35569;48.402;10.670;2022-08-21T02:01:57;1.10;;;1.10;;
10489;SDS011;35569;48.402;10.670;2022-08-21T02:02:32;0.97;;;0.97;;
10489;SDS011;35569;48.402;10.670;2022-08-21T02:03:04;1.00;;;1.00;;
10489;SDS011;35569;48.402;10.670;2022-08-21T02:03:37;0.93;;;0.93;;
10489;SDS011;35569;48.402;10.670;2022-08-21T02:04:13;1.20;;;1.20;;
10489;SDS011;35569;48.402;10.670;2022-08-21T02:04:45;1.17;;;1.17;;
10489;SDS011;35569;48.402;10.670;2022-08-21T02:05:18;0.90;;;0.90;;
10489;SDS011;35569;48.402;10.670;2022-08-21T02:05:53;1.20;;;1.20;;
10489;SDS011;35569;48.402;10.670;2022-08-21T02:06:26;0.90;;;0.90;;
10489;SDS011;35569;48.402;10.670;2022-08-21T02:07:01;0.90;;;0.90;;
10489;SDS011;35569;48.402;10.670;2022-08-21T02:07:41;1.00;;;1.00;;
10489;SDS011;35569;48.402;10.670;2022-08-21T02:08:16;0.80;;;0.80;;
10489;SDS011;35569;48.402;10.670;2022-08-21T02:08:54;1.20;;;1.20;;
10489;SDS011;35569;48.402;10.670;2022-08-21T02:09:27;1.30;;;1.30;;
10489;SDS011;35569;48.402;10.670;2022-08-21T02:10:00;1.30;;;1.30;;
10489;SDS011;35569;48.402;10.670;2022-08-21T02:10:35;1.23;;;1.23;;
10489;SDS011;35569;48.402;10.670;2022-08-21T02:11:07;1.43;;;1.43;;
10489;SDS011;35569;48.402;10.670;2022-08-21T02:11:40;1.23;;;1.23;;
10489;SDS011;35569;48.402;10.670;2022-08-21T02:12:15;1.40;;;1.40;;
10489;SDS011;35569;48.402;10.670;2022-08-21T02:12:48;1.40;;;1.40;;
10489;SDS011;35569;48.402;10.670;2022-08-21T02:13:21;1.20;;;1.20;;
10489;SDS011;35569;48.402;10.670;2022-08-21T02:13:56;1.33;;;1.33;;
10489;SDS011;35569;48.402;10.670;2022-08-21T02:14:28;1.23;;;1.23;;
10489;SDS011;35569;48.402;10.670;2022-08-21T02:15:04;1.00;;;1.00;;
10489;SDS011;35569;48.402;10.670;2022-08-21T02:15:37;1.17;;;0.93;;
10489;SDS011;35569;48.402;10.670;2022-08-21T02:16:12;1.30;;;1.30;;
10489;SDS011;35569;48.402;10.670;2022-08-21T02:16:49;1.10;;;1.10;;
10489;SDS011;35569;48.402;10.670;2022-08-21T02:17:37;0.90;;;0.90;;
10489;SDS011;35569;48.402;10.670;2022-08-21T02:18:10;1.00;;;1.00;;
10489;SDS011;35569;48.402;10.670;2022-08-21T02:18:47;0.80;;;0.80;;
10489;SDS011;35569;48.402;10.670;2022-08-21T02:19:19;0.90;;;0.90;;
10489;SDS011;35569;48.402;10.670;2022-08-21T02:19:51;0.93;;;0.93;;
10489;SDS011;35569;48.402;10.670;2022-08-21T02:20:25;1.00;;;1.00;;
10489;SDS011;35569;48.402;10.670;2022-08-21T02:21:02;1.20;;;1.20;;
10489;SDS011;35569;48.402;10.670;2022-08-21T02:21:36;1.20;;;1.20;;
10489;SDS011;35569;48.402;10.670;2022-08-21T02:22:11;1.20;;;1.20;;
10489;SDS011;35569;48.402;10.670;2022-08-21T02:22:46;0.73;;;0.73;;
10489;SDS011;35569;48.402;10.670;2022-08-21T02:23:18;0.80;;;0.80;;
10489;SDS011;35569;48.402;10.670;2022-08-21T02:23:57;1.30;;;1.30;;
10489;SDS011;35569;48.402;10.670;2022-08-21T02:24:32;1.43;;;1.43;;
10489;SDS011;35569;48.402;10.670;2022-08-21T02:25:05;1.80;;;1.70;;
10489;SDS011;35569;48.402;10.670;2022-08-21T02:25:38;1.30;;;1.30;;
10489;SDS011;35569;48.402;10.670;2022-08-21T02:26:14;0.90;;;0.90;;
10489;SDS011;35569;48.402;10.670;2022-08-21T02:26:46;1.23;;;1.23;;
10489;SDS011;35569;48.402;10.670;2022-08-21T02:27:18;1.10;;;1.10;;
10489;SDS011;35569;48.402;10.670;2022-08-21T02:27:57;1.03;;;1.03;;
10489;SDS011;35569;48.402;10.670;2022-08-21T02:28:34;1.00;;;1.00;;
10489;SDS011;35569;48.402;10.670;2022-08-21T02:29:07;1.03;;;1.03;;
10489;SDS011;35569;48.402;10.670;2022-08-21T02:29:39;0.87;;;0.87;;
10489;SDS011;35569;48.402;10.670;2022-08-21T02:30:15;1.00;;;1.00;;
10489;SDS011;35569;48.402;10.670;2022-08-21T02:30:48;1.10;;;1.10;;
10489;SDS011;35569;48.402;10.670;2022-08-21T02:31:22;0.80;;;0.80;;
10489;SDS011;35569;48.402;10.670;2022-08-21T02:31:57;0.70;;;0.70;;
10489;SDS011;35569;48.402;10.670;2022-08-21T02:32:30;0.63;;;0.63;;
10489;SDS011;35569;48.402;10.670;2022-08-21T02:33:02;0.70;;;0.70;;
10489;SDS011;35569;48.402;10.670;2022-08-21T02:33:38;0.70;;;0.70;;
10489;SDS011;35569;48.402;10.670;2022-08-21T02:34:10;0.63;;;0.63;;
10489;SDS011;35569;48.402;10.670;2022-08-21T02:34:43;0.77;;;0.77;;
10489;SDS011;35569;48.402;10.670;2022-08-21T02:35:18;0.70;;;0.70;;
10489;SDS011;35569;48.402;10.670;2022-08-21T02:35:51;0.90;;;0.90;;
10489;SDS011;35569;48.402;10.670;2022-08-21T02:36:24;0.80;;;0.80;;
10489;SDS011;35569;48.402;10.670;2022-08-21T02:36:59;0.90;;;0.90;;
10489;SDS011;35569;48.402;10.670;2022-08-21T02:37:34;0.80;;;0.80;;
10489;SDS011;35569;48.402;10.670;2022-08-21T02:38:16;0.60;;;0.60;;
10489;SDS011;35569;48.402;10.670;2022-08-21T02:38:52;0.80;;;0.80;;
10489;SDS011;35569;48.402;10.670;2022-08-21T02:39:24;0.70;;;0.70;;
10489;SDS011;35569;48.402;10.670;2022-08-21T02:39:58;1.83;;;0.73;;
10489;SDS011;35569;48.402;10.670;2022-08-21T02:40:35;1.07;;;1.07;;
10489;SDS011;35569;48.402;10.670;2022-08-21T02:41:14;0.70;;;0.70;;
10489;SDS011;35569;48.402;10.670;2022-08-21T02:41:50;0.90;;;0.90;;
10489;SDS011;35569;48.402;10.670;2022-08-21T02:42:22;0.70;;;0.70;;
10489;SDS011;35569;48.402;10.670;2022-08-21T02:42:55;0.80;;;0.80;;
10489;SDS011;35569;48.402;10.670;2022-08-21T02:43:27;1.20;;;1.10;;
10489;SDS011;35569;48.402;10.670;2022-08-21T02:44:03;0.90;;;0.90;;
10489;SDS011;35569;48.402;10.670;2022-08-21T02:44:35;0.60;;;0.60;;
10489;SDS011;35569;48.402;10.670;2022-08-21T02:45:08;1.13;;;0.80;;
10489;SDS011;35569;48.402;10.670;2022-08-21T02:45:44;1.20;;;1.20;;
10489;SDS011;35569;48.402;10.670;2022-08-21T02:46:18;1.20;;;1.20;;
10489;SDS011;35569;48.402;10.670;2022-08-21T02:46:51;1.03;;;1.03;;
10489;SDS011;35569;48.402;10.670;2022-08-21T02:47:27;1.07;;;1.07;;
10489;SDS011;35569;48.402;10.670;2022-08-21T02:48:00;1.10;;;1.10;;
10489;SDS011;35569;48.402;10.670;2022-08-21T02:48:35;0.87;;;0.87;;
10489;SDS011;35569;48.402;10.670;2022-08-21T02:49:11;1.00;;;1.00;;
10489;SDS011;35569;48.402;10.670;2022-08-21T02:49:44;1.00;;;1.00;;
10489;SDS011;35569;48.402;10.670;2022-08-21T02:50:18;1.00;;;1.00;;
10489;SDS011;35569;48.402;10.670;2022-08-21T02:50:57;0.90;;;0.90;;
10489;SDS011;35569;48.402;10.670;2022-08-21T02:51:31;0.80;;;0.80;;
10489;SDS011;35569;48.402;10.670;2022-08-21T02:52:06;0.90;;;0.90;;
10489;SDS011;35569;48.402;10.670;2022-08-21T02:52:41;0.90;;;0.90;;
10489;SDS011;35569;48.402;10.670;2022-08-21T02:53:14;0.90;;;0.90;;
10489;SDS011;35569;48.402;10.670;2022-08-21T02:53:50;1.27;;;1.27;;
10489;SDS011;35569;48.402;10.670;2022-08-21T02:54:22;0.87;;;0.87;;
10489;SDS011;35569;48.402;10.670;2022-08-21T02:54:55;1.10;;;1.10;;
10489;SDS011;35569;48.402;10.670;2022-08-21T02:55:30;1.10;;;1.10;;
10489;SDS011;35569;48.402;10.670;2022-08-21T02:56:05;1.00;;;1.00;;
10489;SDS011;35569;48.402;10.670;2022-08-21T02:56:38;1.10;;;1.10;;
10489;SDS011;35569;48.402;10.670;2022-08-21T02:57:14;0.83;;;0.83;;
10489;SDS011;35569;48.402;10.670;2022-08-21T02:57:46;0.80;;;0.80;;
10489;SDS011;35569;48.402;10.670;2022-08-21T02:58:19;0.80;;;0.80;;
10489;SDS011;35569;48.402;10.670;2022-08-21T02:58:55;1.07;;;1.07;;
10489;SDS011;35569;48.402;10.670;2022-08-21T02:59:28;0.80;;;0.80;;
10489;SDS011;35569;48.402;10.670;2022-08-21T03:00:02;1.10;;;1.10;;
10489;SDS011;35569;48.402;10.670;2022-08-21T03:00:42;1.00;;;1.00;;
10489;SDS011;35569;48.402;10.670;2022-08-21T03:01:15;1.00;;;1.00;;
10489;SDS011;35569;48.402;10.670;2022-08-21T03:01:51;0.90;;;0.90;;
10489;SDS011;35569;48.402;10.670;2022-08-21T03:02:23;1.20;;;1.20;;
10489;SDS011;35569;48.402;10.670;2022-08-21T03:02:57;0.97;;;0.97;;
10489;SDS011;35569;48.402;10.670;2022-08-21T03:03:32;1.13;;;1.13;;
10489;SDS011;35569;48.402;10.670;2022-08-21T03:04:07;1.30;;;1.20;;
10489;SDS011;35569;48.402;10.670;2022-08-21T03:04:39;1.00;;;1.00;;
10489;SDS011;35569;48.402;10.670;2022-08-21T03:05:17;1.00;;;1.00;;
10489;SDS011;35569;48.402;10.670;2022-08-21T03:05:50;1.07;;;1.07;;
10489;SDS011;35569;48.402;10.670;2022-08-21T03:06:23;1.03;;;1.03;;
10489;SDS011;35569;48.402;10.670;2022-08-21T03:07:00;1.17;;;1.17;;
10489;SDS011;35569;48.402;10.670;2022-08-21T03:07:32;0.90;;;0.90;;
10489;SDS011;35569;48.402;10.670;2022-08-21T03:08:09;1.00;;;1.00;;
10489;SDS011;35569;48.402;10.670;2022-08-21T03:08:45;1.10;;;1.10;;
10489;SDS011;35569;48.402;10.670;2022-08-21T03:09:17;1.10;;;1.10;;
10489;SDS011;35569;48.402;10.670;2022-08-21T03:09:50;1.00;;;1.00;;
10489;SDS011;35569;48.402;10.670;2022-08-21T03:10:26;0.97;;;0.97;;
10489;SDS011;35569;48.402;10.670;2022-08-21T03:10:59;1.20;;;1.20;;
10489;SDS011;35569;48.402;10.670;2022-08-21T03:11:32;1.20;;;1.10;;
10489;SDS011;35569;48.402;10.670;2022-08-21T03:12:08;0.90;;;0.90;;
10489;SDS011;35569;48.402;10.670;2022-08-21T03:12:40;1.57;;;1.47;;
10489;SDS011;35569;48.402;10.670;2022-08-21T03:13:13;0.97;;;0.97;;
10489;SDS011;35569;48.402;10.670;2022-08-21T03:13:49;1.20;;;1.20;;
10489;SDS011;35569;48.402;10.670;2022-08-21T03:14:25;1.13;;;1.13;;
10489;SDS011;35569;48.402;10.670;2022-08-21T03:14:57;1.10;;;1.10;;
10489;SDS011;35569;48.402;10.670;2022-08-21T03:15:39;0.90;;;0.90;;
10489;SDS011;35569;48.402;10.670;2022-08-21T03:16:11;1.00;;;1.00;;
10489;SDS011;35569;48.402;10.670;2022-08-21T03:16:48;1.13;;;1.13;;
10489;SDS011;35569;48.402;10.670;2022-08-21T03:17:23;0.80;;;0.80;;
10489;SDS011;35569;48.402;10.670;2022-08-21T03:18:00;0.73;;;0.73;;
10489;SDS011;35569;48.402;10.670;2022-08-21T03:18:36;0.90;;;0.90;;
10489;SDS011;35569;48.402;10.670;2022-08-21T03:19:10;0.87;;;0.87;;
10489;SDS011;35569;48.402;10.670;2022-08-21T03:19:45;1.17;;;1.17;;
10489;SDS011;35569;48.402;10.670;2022-08-21T03:20:24;0.90;;;0.90;;
10489;SDS011;35569;48.402;10.670;2022-08-21T03:20:58;1.10;;;1.10;;
10489;SDS011;35569;48.402;10.670;2022-08-21T03:21:32;0.87;;;0.87;;
10489;SDS011;35569;48.402;10.670;2022-08-21T03:22:07;1.03;;;1.03;;
10489;SDS011;35569;48.402;10.670;2022-08-21T03:22:39;0.90;;;0.90;;
10489;SDS011;35569;48.402;10.670;2022-08-21T03:23:22;1.00;;;1.00;;
10489;SDS011;35569;48.402;10.670;2022-08-21T03:24:03;0.90;;;0.90;;
10489;SDS011;35569;48.402;10.670;2022-08-21T03:24:37;0.97;;;0.90;;
10489;SDS011;35569;48.402;10.670;2022-08-21T03:25:14;1.10;;;1.10;;